Time;durP1;ratioP1;P1;durP2;ratioP2;P2;SDS_P1;SDS_P2;PMS_P1;PMS_P2;Temp;Humidity;BMP_temperature;BMP_pressure;BME280_temperature;BME280_humidity;BME280_pressure;Samples;Min_cycle;Max_cycle;Signal;HPM_P1;HPM_P2
2024/01/21 00:01:14;;;;;;;;;;;;;;;-1.14;61.46;101985.63;4868937;29;20026;-73
2024/01/21 00:03:39;;;;;;;;;;;;;;;-1.15;61.51;101970.69;4895030;29;20022;-73
2024/01/21 00:06:04;;;;;;;;;;;;;;;-1.26;62.77;101965.22;4894695;29;19971;-73
2024/01/21 00:08:30;;;;;;;;;;;;;;;-1.27;62.79;101960.88;4893316;29;20640;-73
2024/01/21 00:10:55;;;;;;;;;;;;;;;-1.27;61.73;101960.88;4891348;29;20633;-73
2024/01/21 00:13:20;;;;;;;;;;;;;;;-1.25;61.92;101957.19;4896464;29;19953;-73
2024/01/21 00:15:45;;;;;;;;;;;;;;;-1.23;62.04;101950.03;4896807;29;19931;-74
2024/01/21 00:18:11;;;;;;;;;;;;;;;-1.24;62.17;101944.84;4894583;29;19927;-74
2024/01/21 00:20:36;;;;;;;;;;;;;;;-1.28;62.21;101941.53;4894865;29;20014;-73
2024/01/21 00:23:03;;;;;;;;;;;;;;;-1.31;62.46;101946.16;4894662;29;19973;-74
2024/01/21 00:25:28;;;;;;;;;;;;;;;-1.39;62.42;101941.34;4893418;29;20025;-74
2024/01/21 00:27:53;;;;;;;;;;;;;;;-1.32;61.97;101942.66;4895839;29;20476;-73
2024/01/21 00:30:18;;;;;;;;;;;;;;;-1.37;61.76;101937.66;4894135;29;20490;-74
2024/01/21 00:32:44;;;;;;;;;;;;;;;-1.39;62.28;101928.97;4894458;29;19939;-74
2024/01/21 00:35:09;;;;;;;;;;;;;;;-1.40;62.80;101927.25;4894807;29;20273;-73
2024/01/21 00:37:34;;;;;;;;;;;;;;;-1.48;62.68;101913.69;4895439;29;20345;-73
2024/01/21 00:40:00;;;;;;;;;;;;;;;-1.52;63.39;101904.22;4889404;29;19924;-73
2024/01/21 00:42:25;;;;;;;;;;;;;;;-1.55;62.83;101896.50;4894440;29;20026;-73
2024/01/21 00:44:50;;;;;;;;;;;;;;;-1.47;62.23;101888.97;4894181;29;19930;-73
2024/01/21 00:47:15;;;;;;;;;;;;;;;-1.46;62.14;101885.38;4894417;29;20022;-73
2024/01/21 00:49:40;;;;;;;;;;;;;;;-1.47;60.91;101891.59;4893638;29;19931;-73
2024/01/21 00:52:06;;;;;;;;;;;;;;;-1.41;61.69;101888.56;4894991;29;19927;-73
2024/01/21 00:54:32;;;;;;;;;;;;;;;-1.38;60.46;101890.19;4888359;29;19935;-73
2024/01/21 00:56:57;;;;;;;;;;;;;;;-1.42;60.83;101892.19;4897915;29;20304;-73
2024/01/21 00:59:22;;;;;;;;;;;;;;;-1.43;60.39;101890.50;4898033;29;19927;-73
2024/01/21 01:01:48;;;;;;;;;;;;;;;-1.41;60.63;101885.94;4897272;29;19966;-73
2024/01/21 01:04:13;;;;;;;;;;;;;;;-1.48;60.80;101887.28;4898305;29;19927;-73
2024/01/21 01:06:38;;;;;;;;;;;;;;;-1.49;61.10;101887.34;4894993;29;19979;-73
2024/01/21 01:09:04;;;;;;;;;;;;;;;-1.51;60.62;101882.16;4896589;29;20505;-73
2024/01/21 01:11:30;;;;;;;;;;;;;;;-1.56;59.76;101881.59;4898377;29;19923;-73
2024/01/21 01:13:56;;;;;;;;;;;;;;;-1.49;60.10;101888.22;4897881;29;19923;-73
2024/01/21 01:16:21;;;;;;;;;;;;;;;-1.44;59.71;101877.34;4916061;29;19934;-73
2024/01/21 01:18:46;;;;;;;;;;;;;;;-1.48;60.02;101876.72;4904778;29;19934;-72
2024/01/21 01:21:11;;;;;;;;;;;;;;;-1.49;59.54;101867.09;4899001;29;19939;-74
2024/01/21 01:23:36;;;;;;;;;;;;;;;-1.50;58.98;101865.38;4893883;29;19936;-74
2024/01/21 01:26:02;;;;;;;;;;;;;;;-1.49;59.63;101866.22;4897989;29;19979;-72
2024/01/21 01:28:27;;;;;;;;;;;;;;;-1.55;58.86;101860.38;4897280;29;19924;-74
2024/01/21 01:30:55;;;;;;;;;;;;;;;-1.59;58.71;101858.03;4897418;29;20022;-73
2024/01/21 01:33:21;;;;;;;;;;;;;;;-1.58;58.68;101857.91;4895764;29;19979;-73
2024/01/21 01:35:46;;;;;;;;;;;;;;;-1.58;57.88;101855.28;4896700;29;19927;-73
2024/01/21 01:38:13;;;;;;;;;;;;;;;-1.61;58.08;101854.63;4902127;29;19930;-73
2024/01/21 01:40:38;;;;;;;;;;;;;;;-1.65;58.18;101856.59;4896191;29;19924;-73
2024/01/21 01:43:03;;;;;;;;;;;;;;;-1.64;58.43;101850.34;4896474;29;19931;-73
2024/01/21 01:45:29;;;;;;;;;;;;;;;-1.63;57.58;101848.59;4897358;29;19924;-74
2024/01/21 01:47:57;;;;;;;;;;;;;;;-1.65;57.46;101843.38;4896281;29;19959;-74
2024/01/21 01:50:22;;;;;;;;;;;;;;;-1.72;58.45;101842.91;4897595;29;19964;-74
2024/01/21 01:52:48;;;;;;;;;;;;;;;-1.72;57.89;101842.06;4893738;29;20435;-74
2024/01/21 01:55:13;;;;;;;;;;;;;;;-1.73;57.45;101830.66;4891379;29;20392;-74
2024/01/21 01:57:38;;;;;;;;;;;;;;;-1.72;57.78;101837.63;4896783;29;20447;-74
2024/01/21 02:00:06;;;;;;;;;;;;;;;-1.72;57.19;101827.06;4876087;29;20412;-74
2024/01/21 02:02:32;;;;;;;;;;;;;;;-1.74;57.42;101822.81;4896086;29;20359;-74
2024/01/21 02:04:57;;;;;;;;;;;;;;;-1.75;57.65;101824.59;4880225;29;19928;-73
2024/01/21 02:07:25;;;;;;;;;;;;;;;-1.69;56.47;101816.31;4894846;29;19927;-72
2024/01/21 02:09:50;;;;;;;;;;;;;;;-1.62;56.52;101818.59;4896782;29;20010;-73
2024/01/21 02:12:17;;;;;;;;;;;;;;;-1.56;56.33;101810.28;4896508;29;20017;-73
2024/01/21 02:14:42;;;;;;;;;;;;;;;-1.55;56.03;101812.00;4896860;29;19927;-72
2024/01/21 02:17:08;;;;;;;;;;;;;;;-1.55;56.75;101804.94;4895956;29;20292;-72
2024/01/21 02:19:33;;;;;;;;;;;;;;;-1.60;57.42;101793.78;4896956;29;20329;-72
2024/01/21 02:21:58;;;;;;;;;;;;;;;-1.58;56.25;101791.03;4895381;29;20351;-72
2024/01/21 02:24:30;;;;;;;;;;;;;;;-1.59;55.19;101784.09;4895531;29;20328;-72
2024/01/21 02:26:56;;;;;;;;;;;;;;;-1.59;57.30;101784.94;4896402;29;19931;-72
2024/01/21 02:29:21;;;;;;;;;;;;;;;-1.60;56.53;101779.75;4896775;29;19923;-72
2024/01/21 02:31:46;;;;;;;;;;;;;;;-1.60;56.27;101777.13;4894850;29;20507;-72
2024/01/21 02:34:11;;;;;;;;;;;;;;;-1.59;55.65;101768.25;4897089;29;20444;-72
2024/01/21 02:36:36;;;;;;;;;;;;;;;-1.55;55.18;101753.91;4895859;29;20393;-72
2024/01/21 02:39:02;;;;;;;;;;;;;;;-1.53;55.60;101749.38;4895152;29;20643;-72
2024/01/21 02:41:27;;;;;;;;;;;;;;;-1.60;55.42;101750.72;4896482;29;20332;-72
2024/01/21 02:43:52;;;;;;;;;;;;;;;-1.53;55.69;101738.81;4896730;29;20406;-72
2024/01/21 02:46:26;;;;;;;;;;;;;;;-1.64;56.22;101733.34;4894484;29;20284;-72
2024/01/21 02:48:52;;;;;;;;;;;;;;;-1.63;55.86;101735.06;4896483;29;20484;-72
2024/01/21 02:51:17;;;;;;;;;;;;;;;-1.61;56.21;101734.00;4895265;29;20014;-73
2024/01/21 02:53:42;;;;;;;;;;;;;;;-1.58;55.73;101723.25;4895397;29;19927;-71
2024/01/21 02:56:07;;;;;;;;;;;;;;;-1.45;55.22;101720.69;4895183;29;19935;-72
2024/01/21 02:58:32;;;;;;;;;;;;;;;-1.46;55.66;101713.72;4896396;29;19978;-72
2024/01/21 03:00:58;;;;;;;;;;;;;;;-1.41;55.27;101714.25;4894183;29;19927;-72
2024/01/21 03:03:23;;;;;;;;;;;;;;;-1.36;54.90;101708.72;4896320;29;20395;-74
2024/01/21 03:05:48;;;;;;;;;;;;;;;-1.37;56.33;101697.28;4895928;29;20276;-74
2024/01/21 03:08:14;;;;;;;;;;;;;;;-1.41;55.79;101692.28;4894814;29;20311;-74
2024/01/21 03:10:39;;;;;;;;;;;;;;;-1.39;55.97;101690.41;4894721;29;20268;-73
2024/01/21 03:13:05;;;;;;;;;;;;;;;-1.39;54.71;101680.69;4893377;29;19923;-73
2024/01/21 03:15:30;;;;;;;;;;;;;;;-1.45;55.71;101670.53;4894584;29;19923;-74
2024/01/21 03:17:55;;;;;;;;;;;;;;;-1.39;55.58;101658.72;4896349;29;19926;-72
2024/01/21 03:20:20;;;;;;;;;;;;;;;-1.40;54.54;101655.22;4895366;29;20380;-72
2024/01/21 03:22:46;;;;;;;;;;;;;;;-1.28;54.31;101650.09;4904468;29;19923;-73
2024/01/21 03:25:11;;;;;;;;;;;;;;;-1.21;53.68;101643.44;4909274;29;19931;-73
2024/01/21 03:27:36;;;;;;;;;;;;;;;-1.14;53.06;101636.81;4895606;29;19927;-72
2024/01/21 03:30:01;;;;;;;;;;;;;;;-1.08;54.12;101628.50;4893828;29;20321;-73
2024/01/21 03:32:26;;;;;;;;;;;;;;;-1.01;53.45;101633.38;4895570;29;19927;-73
2024/01/21 03:34:52;;;;;;;;;;;;;;;-0.93;52.59;101633.72;4895373;29;19927;-75
2024/01/21 03:37:18;;;;;;;;;;;;;;;-0.90;53.59;101633.53;4895084;29;19929;-75
2024/01/21 03:39:43;;;;;;;;;;;;;;;-0.94;53.29;101609.06;4894490;29;19975;-75
2024/01/21 03:42:08;;;;;;;;;;;;;;;-0.94;53.59;101621.44;4895082;29;19928;-73
2024/01/21 03:44:36;;;;;;;;;;;;;;;-0.93;53.38;101615.22;4895399;29;19932;-74
2024/01/21 03:47:02;;;;;;;;;;;;;;;-0.95;53.41;101612.66;4901411;29;19924;-75
2024/01/21 03:49:28;;;;;;;;;;;;;;;-0.92;54.09;101601.06;4888187;29;19931;-75
2024/01/21 03:51:53;;;;;;;;;;;;;;;-0.95;54.40;101609.19;4895393;29;19935;-75
2024/01/21 03:54:18;;;;;;;;;;;;;;;-1.00;54.79;101606.84;4894295;29;19927;-74
2024/01/21 03:56:44;;;;;;;;;;;;;;;-0.97;54.68;101603.16;4894647;29;19960;-74
2024/01/21 03:59:09;;;;;;;;;;;;;;;-0.99;54.96;101602.41;4892891;29;19924;-74
2024/01/21 04:01:34;;;;;;;;;;;;;;;-0.95;54.48;101593.31;4894981;29;19924;-74
2024/01/21 04:03:59;;;;;;;;;;;;;;;-0.98;54.99;101594.38;4894778;29;19924;-74
2024/01/21 04:06:34;;;;;;;;;;;;;;;-0.98;54.81;101582.94;4894954;29;20398;-74
2024/01/21 04:08:59;;;;;;;;;;;;;;;-0.98;54.82;101582.94;4891095;29;19923;-74
2024/01/21 04:11:24;;;;;;;;;;;;;;;-0.97;54.70;101580.19;4895031;29;20017;-74
2024/01/21 04:13:50;;;;;;;;;;;;;;;-1.01;55.62;101585.78;4894328;29;19966;-74
2024/01/21 04:16:15;;;;;;;;;;;;;;;-1.03;55.37;101575.34;4894953;29;20388;-75
2024/01/21 04:18:40;;;;;;;;;;;;;;;-1.05;55.55;101561.38;4894831;29;19994;-74
2024/01/21 04:21:05;;;;;;;;;;;;;;;-0.98;54.52;101572.38;4902047;29;19923;-74
2024/01/21 04:23:31;;;;;;;;;;;;;;;-0.99;55.71;101571.56;4887835;29;20298;-74
2024/01/21 04:25:56;;;;;;;;;;;;;;;-1.00;55.32;101566.34;4894581;29;20348;-74
2024/01/21 04:28:21;;;;;;;;;;;;;;;-1.03;55.71;101561.25;4894531;29;20308;-74
2024/01/21 04:30:46;;;;;;;;;;;;;;;-1.06;55.88;101554.41;4895624;29;19942;-74
2024/01/21 04:33:12;;;;;;;;;;;;;;;-0.99;55.49;101554.84;4897627;29;19928;-73
2024/01/21 04:35:37;;;;;;;;;;;;;;;-0.96;54.62;101539.59;4899190;29;19930;-73
2024/01/21 04:38:02;;;;;;;;;;;;;;;-0.97;55.90;101547.66;4897993;29;19924;-73
2024/01/21 04:40:27;;;;;;;;;;;;;;;-0.93;54.56;101535.91;4897603;29;20026;-73
2024/01/21 04:42:52;;;;;;;;;;;;;;;-0.91;54.86;101557.81;4898248;29;19923;-74
2024/01/21 04:45:19;;;;;;;;;;;;;;;-0.92;54.75;101548.19;4897468;29;19923;-74
2024/01/21 04:47:44;;;;;;;;;;;;;;;-0.86;54.25;101562.78;4892197;29;20277;-74
2024/01/21 04:50:09;;;;;;;;;;;;;;;-0.91;54.91;101565.75;4898998;29;19939;-74
2024/01/21 04:52:37;;;;;;;;;;;;;;;-0.94;54.98;101558.00;4897079;29;20398;-74
2024/01/21 04:55:03;;;;;;;;;;;;;;;-0.96;55.58;101544.06;4899248;29;19929;-73
2024/01/21 04:57:28;;;;;;;;;;;;;;;-1.01;55.71;101536.44;4896443;29;19923;-74
2024/01/21 04:59:53;;;;;;;;;;;;;;;-1.13;56.83;101529.34;4897234;29;19939;-74
2024/01/21 05:02:18;;;;;;;;;;;;;;;-1.10;56.53;101529.13;4904372;23;19927;-73
2024/01/21 05:04:43;;;;;;;;;;;;;;;-1.17;57.43;101514.66;4898196;29;19923;-74
2024/01/21 05:07:09;;;;;;;;;;;;;;;-1.29;57.82;101509.22;4896417;29;19923;-73
2024/01/21 05:09:34;;;;;;;;;;;;;;;-1.28;57.80;101503.00;4898209;29;19924;-73
2024/01/21 05:11:59;;;;;;;;;;;;;;;-1.31;58.38;101505.00;4897115;29;19923;-72
2024/01/21 05:14:24;;;;;;;;;;;;;;;-1.32;58.36;101498.03;4896615;29;19952;-73
2024/01/21 05:16:50;;;;;;;;;;;;;;;-1.32;58.51;101500.69;4896882;29;19923;-74
2024/01/21 05:19:16;;;;;;;;;;;;;;;-1.28;58.25;101492.44;4898497;29;20041;-74
2024/01/21 05:21:41;;;;;;;;;;;;;;;-1.28;58.20;101496.88;4896523;29;19958;-74
2024/01/21 05:24:06;;;;;;;;;;;;;;;-1.29;59.44;101500.47;4898464;29;20011;-74
2024/01/21 05:26:32;;;;;;;;;;;;;;;-1.30;59.41;101486.41;4898979;29;19928;-73
2024/01/21 05:28:59;;;;;;;;;;;;;;;-1.28;58.63;101487.16;4896072;29;19927;-73
2024/01/21 05:31:28;;;;;;;;;;;;;;;-1.24;58.36;101482.53;4894540;29;20046;-73
2024/01/21 05:33:53;;;;;;;;;;;;;;;-1.21;58.26;101474.38;4898149;29;20007;-73
2024/01/21 05:36:18;;;;;;;;;;;;;;;-1.21;59.16;101458.53;4897866;29;20387;-74
2024/01/21 05:38:44;;;;;;;;;;;;;;;-1.23;59.17;101453.34;4901553;29;20372;-74
2024/01/21 05:41:11;;;;;;;;;;;;;;;-1.17;59.51;101445.97;4902875;29;19924;-74
2024/01/21 05:43:36;;;;;;;;;;;;;;;-1.13;59.15;101458.84;4901000;29;20010;-79
2024/01/21 05:46:04;;;;;;;;;;;;;;;-1.09;58.52;101460.34;4898249;29;20419;-74
2024/01/21 05:48:29;;;;;;;;;;;;;;;-1.00;58.47;101450.94;4905488;29;20010;-73
2024/01/21 05:50:54;;;;;;;;;;;;;;;-0.96;58.33;101456.84;4896973;29;20035;-73
2024/01/21 05:53:19;;;;;;;;;;;;;;;-0.99;59.01;101428.84;4897412;29;20034;-73
2024/01/21 05:55:45;;;;;;;;;;;;;;;-0.98;59.38;101413.81;4896866;29;20455;-72
2024/01/21 05:58:11;;;;;;;;;;;;;;;-0.97;58.86;101389.91;4895001;29;20398;-73
2024/01/21 06:00:36;;;;;;;;;;;;;;;-0.93;59.04;101409.06;4895029;29;19929;-73
2024/01/21 06:03:01;;;;;;;;;;;;;;;-0.92;58.69;101416.88;4896492;29;19971;-73
2024/01/21 06:05:26;;;;;;;;;;;;;;;-0.93;59.24;101435.50;4896854;29;20034;-73
2024/01/21 06:07:51;;;;;;;;;;;;;;;-0.90;58.85;101427.34;4896924;29;19923;-73
2024/01/21 06:10:17;;;;;;;;;;;;;;;-0.88;58.78;101435.16;4896737;29;19930;-73
2024/01/21 06:12:42;;;;;;;;;;;;;;;-0.88;58.93;101414.84;4897127;29;19924;-73
2024/01/21 06:15:08;;;;;;;;;;;;;;;-0.86;58.14;101406.81;4896515;29;20300;-73
2024/01/21 06:17:33;;;;;;;;;;;;;;;-0.89;58.16;101402.59;4896876;29;20280;-73
2024/01/21 06:19:58;;;;;;;;;;;;;;;-0.88;58.56;101398.97;4894842;29;19928;-73
2024/01/21 06:22:24;;;;;;;;;;;;;;;-0.92;59.13;101414.22;4894985;29;19966;-73
2024/01/21 06:24:49;;;;;;;;;;;;;;;-0.95;59.26;101405.69;4894747;29;20300;-73
2024/01/21 06:27:14;;;;;;;;;;;;;;;-0.92;58.94;101410.75;4896402;29;19927;-73
2024/01/21 06:29:39;;;;;;;;;;;;;;;-0.92;58.79;101414.22;4895944;29;19923;-73
2024/01/21 06:32:07;;;;;;;;;;;;;;;-0.83;58.46;101431.22;4895460;29;20531;-73
2024/01/21 06:34:33;;;;;;;;;;;;;;;-0.82;58.71;101451.44;4896391;29;20296;-72
2024/01/21 06:36:58;;;;;;;;;;;;;;;-0.79;57.73;101453.00;4895417;29;19928;-73
2024/01/21 06:39:23;;;;;;;;;;;;;;;-0.78;58.10;101436.19;4896331;29;20420;-73
2024/01/21 06:41:48;;;;;;;;;;;;;;;-0.78;58.42;101436.19;4898142;29;20395;-73
2024/01/21 06:44:14;;;;;;;;;;;;;;;-0.80;58.41;101428.38;4895179;29;20022;-73
2024/01/21 06:46:40;;;;;;;;;;;;;;;-0.82;58.55;101435.56;4892658;29;19987;-73
2024/01/21 06:49:05;;;;;;;;;;;;;;;-0.78;58.23;101437.06;4893526;29;20369;-74
2024/01/21 06:51:54;;;;;;;;;;;;;;;-0.76;58.43;101436.94;4896796;29;20361;-73
2024/01/21 06:54:19;;;;;;;;;;;;;;;-0.78;58.10;101438.84;4893109;29;20001;-74
2024/01/21 06:56:45;;;;;;;;;;;;;;;-0.75;58.15;101443.06;4899936;29;19943;-74
2024/01/21 06:59:10;;;;;;;;;;;;;;;-0.80;57.75;101427.53;4896028;29;19934;-73
2024/01/21 07:01:35;;;;;;;;;;;;;;;-0.81;57.95;101447.84;4896461;29;19930;-74
2024/01/21 07:04:01;;;;;;;;;;;;;;;-0.79;57.56;101461.78;4896458;29;19924;-74
2024/01/21 07:06:26;;;;;;;;;;;;;;;-0.78;58.61;101458.19;4895337;29;19923;-74
2024/01/21 07:08:51;;;;;;;;;;;;;;;-0.74;58.51;101464.09;4897023;29;19929;-73
2024/01/21 07:11:16;;;;;;;;;;;;;;;-0.70;58.29;101467.38;4896790;29;20353;-74
2024/01/21 07:13:41;;;;;;;;;;;;;;;-0.68;58.21;101457.53;4895388;29;19923;-74
2024/01/21 07:16:07;;;;;;;;;;;;;;;-0.64;57.98;101437.88;4898773;29;19927;-74
2024/01/21 07:18:32;;;;;;;;;;;;;;;-0.58;57.95;101453.31;4897363;29;19924;-74
2024/01/21 07:20:57;;;;;;;;;;;;;;;-0.58;58.14;101442.72;4895720;29;19927;-74
2024/01/21 07:23:22;;;;;;;;;;;;;;;-0.55;57.83;101458.38;4896558;29;19923;-73
2024/01/21 07:25:48;;;;;;;;;;;;;;;-0.52;58.21;101463.44;4897016;29;20757;-75
2024/01/21 07:28:13;;;;;;;;;;;;;;;-0.52;57.26;101455.50;4895643;29;19927;-74
2024/01/21 07:30:38;;;;;;;;;;;;;;;-0.44;57.77;101469.97;4899539;29;19923;-74
2024/01/21 07:33:03;;;;;;;;;;;;;;;-0.44;58.27;101485.84;4902907;29;19927;-74
2024/01/21 07:35:29;;;;;;;;;;;;;;;-0.40;57.75;101459.06;4896615;29;19923;-76
2024/01/21 07:37:54;;;;;;;;;;;;;;;-0.39;57.52;101425.53;4895861;29;20300;-80
2024/01/21 07:40:19;;;;;;;;;;;;;;;-0.38;57.33;101424.59;4892180;29;19931;-74
2024/01/21 07:42:45;;;;;;;;;;;;;;;-0.31;57.25;101423.16;4895658;29;19928;-74
2024/01/21 07:45:11;;;;;;;;;;;;;;;-0.30;57.21;101424.84;4894873;29;19923;-75
2024/01/21 07:47:36;;;;;;;;;;;;;;;-0.27;56.89;101419.34;4896641;29;19991;-80
2024/01/21 07:50:04;;;;;;;;;;;;;;;-0.23;56.72;101419.97;4894593;29;19927;-72
2024/01/21 07:52:29;;;;;;;;;;;;;;;-0.20;57.11;101399.44;4894894;29;19927;-74
2024/01/21 07:54:59;;;;;;;;;;;;;;;-0.21;57.28;101418.91;4895377;29;20304;-74
2024/01/21 07:57:25;;;;;;;;;;;;;;;-0.19;56.49;101417.00;4893988;29;19942;-75
2024/01/21 07:59:50;;;;;;;;;;;;;;;-0.19;57.32;101406.41;4889583;29;19927;-74
2024/01/21 08:02:15;;;;;;;;;;;;;;;-0.18;56.68;101416.00;4893728;29;19928;-74
2024/01/21 08:04:40;;;;;;;;;;;;;;;-0.22;57.29;101411.06;4892199;29;19946;-74
2024/01/21 08:07:06;;;;;;;;;;;;;;;-0.17;57.21;101411.56;4896703;29;20412;-75
2024/01/21 08:09:31;;;;;;;;;;;;;;;-0.17;56.55;101415.06;4897366;29;20401;-74
2024/01/21 08:11:56;;;;;;;;;;;;;;;-0.16;56.97;101426.50;4897928;29;20331;-74
2024/01/21 08:14:24;;;;;;;;;;;;;;;-0.15;57.43;101430.84;4896484;29;19939;-74
2024/01/21 08:16:49;;;;;;;;;;;;;;;-0.13;57.35;101459.81;4896708;29;20018;-74
2024/01/21 08:19:17;;;;;;;;;;;;;;;-0.08;57.44;101453.22;4895392;29;20349;-73
2024/01/21 08:21:42;;;;;;;;;;;;;;;-0.06;57.72;101458.44;4897072;29;19930;-73
2024/01/21 08:24:07;;;;;;;;;;;;;;;-0.01;56.91;101459.78;4900859;29;19923;-73
2024/01/21 08:26:32;;;;;;;;;;;;;;;-0.02;56.58;101444.03;4897591;29;19975;-73
2024/01/21 08:28:58;;;;;;;;;;;;;;;-0.01;57.00;101466.88;4896272;29;19927;-72
2024/01/21 08:31:23;;;;;;;;;;;;;;;0.04;57.31;101464.72;4897409;29;19935;-73
2024/01/21 08:33:48;;;;;;;;;;;;;;;0.06;57.19;101456.69;4897441;29;20006;-73
2024/01/21 08:36:14;;;;;;;;;;;;;;;0.12;57.13;101472.09;4897220;29;20060;-73
2024/01/21 08:38:39;;;;;;;;;;;;;;;0.13;57.17;101484.38;4896165;29;19923;-73
2024/01/21 08:41:04;;;;;;;;;;;;;;;0.18;57.39;101473.47;4897725;29;19932;-73
2024/01/21 08:43:29;;;;;;;;;;;;;;;0.15;57.68;101508.94;4896195;29;19934;-73
2024/01/21 08:45:55;;;;;;;;;;;;;;;0.21;57.74;101510.28;4894378;29;19923;-73
2024/01/21 08:48:20;;;;;;;;;;;;;;;0.28;57.85;101508.91;4894545;29;20387;-73
2024/01/21 08:50:45;;;;;;;;;;;;;;;0.31;57.32;101503.38;4897445;29;19923;-73
2024/01/21 08:53:10;;;;;;;;;;;;;;;0.33;57.86;101509.41;4896462;29;19987;-73
2024/01/21 08:55:36;;;;;;;;;;;;;;;0.30;57.43;101502.53;4897014;29;19923;-73
2024/01/21 08:58:02;;;;;;;;;;;;;;;0.32;57.89;101497.13;4896738;29;19931;-73
2024/01/21 09:00:28;;;;;;;;;;;;;;;0.38;57.49;101494.00;4896650;29;19923;-73
2024/01/21 09:02:53;;;;;;;;;;;;;;;0.44;57.59;101501.50;4895930;29;19923;-72
2024/01/21 09:05:18;;;;;;;;;;;;;;;0.45;57.44;101494.38;4896726;29;20361;-72
2024/01/21 09:07:43;;;;;;;;;;;;;;;0.46;57.39;101504.03;4897163;29;20653;-73
2024/01/21 09:10:09;;;;;;;;;;;;;;;0.50;57.77;101491.41;4898221;29;20352;-73
2024/01/21 09:12:34;;;;;;;;;;;;;;;0.53;57.41;101488.53;4902227;29;20252;-73
2024/01/21 09:14:59;;;;;;;;;;;;;;;0.52;58.16;101486.84;4898891;29;20022;-73
2024/01/21 09:17:25;;;;;;;;;;;;;;;0.57;57.89;101492.63;4896018;29;19931;-73
2024/01/21 09:19:50;;;;;;;;;;;;;;;0.57;58.00;101503.22;4896226;29;19923;-73
2024/01/21 09:22:15;;;;;;;;;;;;;;;0.56;58.22;101510.34;4896236;29;19930;-73
2024/01/21 09:24:40;;;;;;;;;;;;;;;0.58;57.92;101518.16;4897902;29;19923;-73
2024/01/21 09:27:08;;;;;;;;;;;;;;;0.59;58.12;101506.59;4896485;29;19980;-73
2024/01/21 09:29:34;;;;;;;;;;;;;;;0.66;57.63;101504.34;4895742;29;19927;-73
2024/01/21 09:31:59;;;;;;;;;;;;;;;0.62;58.20;101482.53;4897388;29;19986;-73
2024/01/21 09:34:24;;;;;;;;;;;;;;;0.75;57.88;101469.19;4895413;29;19932;-73
2024/01/21 09:36:51;;;;;;;;;;;;;;;0.76;57.77;101476.19;4896667;29;20368;-73
2024/01/21 09:39:16;;;;;;;;;;;;;;;0.77;57.61;101496.44;4897021;29;19930;-73
2024/01/21 09:41:41;;;;;;;;;;;;;;;0.94;56.58;101496.94;4895881;29;19924;-73
2024/01/21 09:44:07;;;;;;;;;;;;;;;1.02;56.72;101506.00;4902627;29;19923;-72
2024/01/21 09:46:32;;;;;;;;;;;;;;;1.06;56.65;101515.38;4907003;29;19927;-73
2024/01/21 09:48:58;;;;;;;;;;;;;;;1.06;56.74;101503.94;4896057;29;20420;-73
2024/01/21 09:51:24;;;;;;;;;;;;;;;1.03;56.70;101507.69;4896316;29;19931;-73
2024/01/21 09:53:49;;;;;;;;;;;;;;;1.05;57.19;101534.06;4897450;29;19925;-73
2024/01/21 09:56:14;;;;;;;;;;;;;;;1.03;57.81;101514.78;4895706;29;19949;-73
2024/01/21 09:58:47;;;;;;;;;;;;;;;1.10;57.38;101507.19;4878991;29;19923;-74
2024/01/21 10:01:12;;;;;;;;;;;;;;;1.14;57.42;101516.63;4880043;29;19931;-74
2024/01/21 10:03:37;;;;;;;;;;;;;;;1.14;57.12;101485.66;4878205;29;20142;-74
2024/01/21 10:06:05;;;;;;;;;;;;;;;1.16;57.54;101512.03;4896122;29;19927;-74
2024/01/21 10:08:31;;;;;;;;;;;;;;;1.22;57.84;101514.22;4896730;29;19927;-74
2024/01/21 10:10:58;;;;;;;;;;;;;;;1.22;58.08;101514.22;4895498;29;19976;-74
2024/01/21 10:13:23;;;;;;;;;;;;;;;1.24;58.81;101532.66;4895366;29;20022;-74
2024/01/21 10:15:51;;;;;;;;;;;;;;;1.27;59.14;101532.44;4896062;29;20038;-73
2024/01/21 10:18:17;;;;;;;;;;;;;;;1.20;60.51;101532.91;4879661;29;19931;-74
2024/01/21 10:20:45;;;;;;;;;;;;;;;1.19;61.50;101535.69;4895950;29;20006;-74
2024/01/21 10:23:10;;;;;;;;;;;;;;;1.27;61.68;101537.72;4895628;29;20336;-74
2024/01/21 10:25:36;;;;;;;;;;;;;;;1.34;61.80;101533.63;4895949;29;19939;-74
2024/01/21 10:28:01;;;;;;;;;;;;;;;1.38;61.91;101535.09;4894491;29;19931;-74
2024/01/21 10:30:26;;;;;;;;;;;;;;;1.45;62.44;101528.34;4894706;29;19923;-75
2024/01/21 10:32:52;;;;;;;;;;;;;;;1.52;61.97;101521.56;4895608;29;19923;-74
2024/01/21 10:35:17;;;;;;;;;;;;;;;1.58;61.90;101508.78;4895389;29;20384;-74
2024/01/21 10:37:42;;;;;;;;;;;;;;;1.58;62.81;101508.78;4894359;29;19924;-74
2024/01/21 10:40:08;;;;;;;;;;;;;;;1.65;64.56;101508.19;4896149;29;19947;-74
2024/01/21 10:42:34;;;;;;;;;;;;;;;1.67;65.52;101518.69;4894599;29;19923;-74
2024/01/21 10:44:59;;;;;;;;;;;;;;;1.65;66.73;101518.78;4877291;29;20002;-74
2024/01/21 10:47:24;;;;;;;;;;;;;;;1.65;67.38;101510.84;4878484;29;19930;-74
2024/01/21 10:49:50;;;;;;;;;;;;;;;1.65;68.97;101499.38;4878006;29;19923;-73
2024/01/21 10:52:18;;;;;;;;;;;;;;;1.65;72.61;101510.00;4893840;29;19923;-74
2024/01/21 10:54:43;;;;;;;;;;;;;;;1.55;74.89;101478.03;4895312;29;19923;-73
2024/01/21 10:57:08;;;;;;;;;;;;;;;1.51;74.10;101487.22;4878185;29;19924;-74
2024/01/21 10:59:36;;;;;;;;;;;;;;;1.61;73.85;101448.34;4893712;29;19923;-73
2024/01/21 11:02:01;;;;;;;;;;;;;;;1.71;73.23;101464.38;4894069;29;20280;-73
2024/01/21 11:04:26;;;;;;;;;;;;;;;1.83;72.73;101459.88;4892957;29;19931;-73
2024/01/21 11:06:52;;;;;;;;;;;;;;;1.90;72.95;101460.22;4893338;29;20074;-73
2024/01/21 11:09:25;;;;;;;;;;;;;;;1.96;72.57;101467.69;4878294;29;20357;-73
2024/01/21 11:11:51;;;;;;;;;;;;;;;1.96;73.28;101460.56;4894786;29;20365;-73
2024/01/21 11:14:30;;;;;;;;;;;;;;;1.97;73.60;101482.66;4893759;29;19999;-74
2024/01/21 11:16:55;;;;;;;;;;;;;;;1.95;74.65;101501.38;4895158;29;19951;-74
2024/01/21 11:19:23;;;;;;;;;;;;;;;1.95;75.86;101495.22;4892535;29;19927;-74
2024/01/21 11:21:48;;;;;;;;;;;;;;;2.02;76.66;101482.28;4894934;29;19924;-75
2024/01/21 11:24:13;;;;;;;;;;;;;;;2.05;77.00;101484.69;4894352;29;19923;-75
2024/01/21 11:26:42;;;;;;;;;;;;;;;2.11;76.88;101481.56;4894339;29;19960;-74
2024/01/21 11:29:26;;;;;;;;;;;;;;;2.10;77.40;101455.97;4887019;29;19935;-74
2024/01/21 11:31:52;;;;;;;;;;;;;;;2.07;78.74;101462.34;4892724;29;20302;-75
2024/01/21 11:34:17;;;;;;;;;;;;;;;2.08;79.24;101465.88;4890744;29;19931;-75
2024/01/21 11:36:43;;;;;;;;;;;;;;;2.07;80.30;101472.13;4892537;29;19966;-75
2024/01/21 11:39:08;;;;;;;;;;;;;;;2.05;81.33;101458.97;4894955;29;20300;-76
2024/01/21 11:41:36;;;;;;;;;;;;;;;2.06;82.07;101460.66;4892446;29;19927;-75
2024/01/21 11:44:10;;;;;;;;;;;;;;;2.09;82.20;101468.38;4894423;29;19946;-75
2024/01/21 11:46:36;;;;;;;;;;;;;;;2.04;82.97;101473.22;4894432;29;20014;-76
2024/01/21 11:49:07;;;;;;;;;;;;;;;2.08;83.81;101460.56;4875649;29;20056;-75
2024/01/21 11:51:33;;;;;;;;;;;;;;;2.04;84.78;101451.97;4896139;29;19994;-75
2024/01/21 11:53:58;;;;;;;;;;;;;;;2.05;85.49;101436.91;4897337;29;20340;-74
2024/01/21 11:56:23;;;;;;;;;;;;;;;2.08;86.10;101484.44;4890999;29;19927;-74
2024/01/21 11:58:50;;;;;;;;;;;;;;;2.05;86.68;101460.78;4893036;29;19935;-73
2024/01/21 12:01:15;;;;;;;;;;;;;;;2.05;87.73;101464.28;4875802;29;19931;-74
2024/01/21 12:03:40;;;;;;;;;;;;;;;2.07;87.95;101472.13;4876818;29;19930;-73
2024/01/21 12:06:05;;;;;;;;;;;;;;;2.06;88.29;101478.41;4892284;29;19941;-74
2024/01/21 12:08:31;;;;;;;;;;;;;;;2.16;88.27;101476.69;4893381;29;20125;-74
2024/01/21 12:10:58;;;;;;;;;;;;;;;2.16;88.03;101481.16;4891570;29;19928;-76
2024/01/21 12:13:24;;;;;;;;;;;;;;;2.17;88.21;101490.81;4892900;29;19931;-75
2024/01/21 12:15:50;;;;;;;;;;;;;;;2.21;88.48;101498.41;4893835;29;19924;-74
2024/01/21 12:18:15;;;;;;;;;;;;;;;2.25;88.50;101491.03;4869186;23;20005;-75
2024/01/21 12:20:43;;;;;;;;;;;;;;;2.26;88.31;101498.03;4855211;29;19963;-74
2024/01/21 12:23:21;;;;;;;;;;;;;;;2.30;87.69;101503.91;4854768;29;20020;-75
2024/01/21 12:25:47;;;;;;;;;;;;;;;2.34;87.56;101495.59;4857384;29;19924;-74
2024/01/21 12:28:12;;;;;;;;;;;;;;;2.34;87.00;101505.34;4854876;29;20039;-74
2024/01/21 12:30:37;;;;;;;;;;;;;;;2.35;87.71;101499.06;4850040;29;19972;-74
2024/01/21 12:33:03;;;;;;;;;;;;;;;2.38;87.46;101498.81;4855188;29;20034;-74